sensor_id;sensor_type;location;lat;lon;timestamp;pressure;altitude;pressure_sealevel;temperature;humidity
977;BME280;477;51.436;7.292;2022-10-04T04:06:39;59986.63;;;-146.42;100.00
977;BME280;477;51.436;7.292;2022-10-04T04:10:17;59986.63;;;-146.42;100.00
977;BME280;477;51.436;7.292;2022-10-04T04:13:57;59986.63;;;-146.42;100.00
977;BME280;477;51.436;7.292;2022-10-04T04:17:35;59986.63;;;-146.42;100.00
977;BME280;477;51.436;7.292;2022-10-04T04:21:20;59986.63;;;-146.42;100.00
977;BME280;477;51.436;7.292;2022-10-04T04:24:52;59986.63;;;-146.42;100.00
977;BME280;477;51.436;7.292;2022-10-04T04:28:22;59986.63;;;-146.42;100.00
977;BME280;477;51.436;7.292;2022-10-04T04:31:55;59986.63;;;-146.42;100.00
977;BME280;477;51.436;7.292;2022-10-04T04:35:29;59986.63;;;-146.42;100.00
977;BME280;477;51.436;7.292;2022-10-04T04:39:13;59986.63;;;-146.42;100.00
977;BME280;477;51.436;7.292;2022-10-04T04:43:01;59986.63;;;-146.42;100.00
977;BME280;477;51.436;7.292;2022-10-04T04:46:30;59986.63;;;-146.42;100.00
977;BME280;477;51.436;7.292;2022-10-04T04:50:03;59986.63;;;-146.42;100.00
977;BME280;477;51.436;7.292;2022-10-04T04:53:32;59986.63;;;-146.42;100.00
977;BME280;477;51.436;7.292;2022-10-04T04:57:01;59986.63;;;-146.42;100.00
977;BME280;477;51.436;7.292;2022-10-04T05:00:28;59986.63;;;-146.42;100.00
977;BME280;477;51.436;7.292;2022-10-04T05:04:16;59986.63;;;-146.42;100.00
977;BME280;477;51.436;7.292;2022-10-04T05:07:45;59986.63;;;-146.42;100.00
977;BME280;477;51.436;7.292;2022-10-04T05:11:35;59986.63;;;-146.42;100.00
977;BME280;477;51.436;7.292;2022-10-04T05:15:07;59986.63;;;-146.42;100.00
977;BME280;477;51.436;7.292;2022-10-04T05:18:36;59986.63;;;-146.42;100.00
977;BME280;477;51.436;7.292;2022-10-04T05:22:07;59986.63;;;-146.42;100.00
977;BME280;477;51.436;7.292;2022-10-04T05:25:37;59986.63;;;-146.42;100.00
977;BME280;477;51.436;7.292;2022-10-04T05:29:10;59986.63;;;-146.42;100.00
977;BME280;477;51.436;7.292;2022-10-04T05:32:46;59986.63;;;-146.42;100.00
977;BME280;477;51.436;7.292;2022-10-04T05:40:15;59986.63;;;-146.42;100.00
977;BME280;477;51.436;7.292;2022-10-04T05:43:50;59986.63;;;-146.42;100.00
977;BME280;477;51.436;7.292;2022-10-04T05:47:21;59986.63;;;-146.42;100.00
977;BME280;477;51.436;7.292;2022-10-04T05:50:52;59986.63;;;-146.42;100.00
977;BME280;477;51.436;7.292;2022-10-04T05:54:24;59986.63;;;-146.42;100.00
977;BME280;477;51.436;7.292;2022-10-04T05:58:24;59986.63;;;-146.42;100.00
977;BME280;477;51.436;7.292;2022-10-04T06:02:14;59986.63;;;-146.42;100.00
977;BME280;477;51.436;7.292;2022-10-04T06:05:59;59986.63;;;-146.42;100.00
977;BME280;477;51.436;7.292;2022-10-04T06:09:45;59986.63;;;-146.42;100.00
977;BME280;477;51.436;7.292;2022-10-04T06:13:26;59986.63;;;-146.42;100.00
977;BME280;477;51.436;7.292;2022-10-04T06:17:11;59986.63;;;-146.42;100.00
977;BME280;477;51.436;7.292;2022-10-04T06:21:06;59986.63;;;-146.42;100.00
977;BME280;477;51.436;7.292;2022-10-04T06:24:45;59986.63;;;-146.42;100.00
977;BME280;477;51.436;7.292;2022-10-04T06:28:18;59986.63;;;-146.42;100.00
977;BME280;477;51.436;7.292;2022-10-04T06:32:30;59986.63;;;-146.42;100.00
977;BME280;477;51.436;7.292;2022-10-04T06:39:40;101490.28;;;10.85;100.00
977;BME280;477;51.436;7.292;2022-10-04T06:42:44;59986.63;;;-146.42;100.00
977;BME280;477;51.436;7.292;2022-10-04T06:45:29;59986.63;;;-146.42;100.00
977;BME280;477;51.436;7.292;2022-10-04T06:48:59;59986.63;;;-146.42;100.00
977;BME280;477;51.436;7.292;2022-10-04T06:51:45;59986.63;;;-146.42;100.00
977;BME280;477;51.436;7.292;2022-10-04T06:55:36;59986.63;;;-146.42;100.00
977;BME280;477;51.436;7.292;2022-10-04T07:02:10;59986.63;;;-146.42;100.00
977;BME280;477;51.436;7.292;2022-10-04T07:04:49;59986.63;;;-146.42;100.00
977;BME280;477;51.436;7.292;2022-10-04T07:07:37;59986.63;;;-146.42;100.00
977;BME280;477;51.436;7.292;2022-10-04T07:11:15;59986.63;;;-146.42;100.00
977;BME280;477;51.436;7.292;2022-10-04T07:14:23;59986.63;;;-146.42;100.00
977;BME280;477;51.436;7.292;2022-10-04T07:17:18;59986.63;;;-146.42;100.00
977;BME280;477;51.436;7.292;2022-10-04T07:20:51;59986.63;;;-146.42;100.00
977;BME280;477;51.436;7.292;2022-10-04T07:24:29;59986.63;;;-146.42;100.00
977;BME280;477;51.436;7.292;2022-10-04T07:28:02;59986.63;;;-146.42;100.00
977;BME280;477;51.436;7.292;2022-10-04T07:31:35;59986.63;;;-146.42;100.00
977;BME280;477;51.436;7.292;2022-10-04T07:34:42;59986.63;;;-146.42;100.00
977;BME280;477;51.436;7.292;2022-10-04T07:37:14;101285.25;;;10.34;100.00
977;BME280;477;51.436;7.292;2022-10-04T07:39:49;101280.78;;;10.37;100.00
977;BME280;477;51.436;7.292;2022-10-04T07:42:25;101285.75;;;10.45;100.00
977;BME280;477;51.436;7.292;2022-10-04T07:45:04;101287.47;;;10.46;100.00
977;BME280;477;51.436;7.292;2022-10-04T07:47:37;59986.63;;;-146.42;100.00
977;BME280;477;51.436;7.292;2022-10-04T07:50:28;59986.63;;;-146.42;100.00
977;BME280;477;51.436;7.292;2022-10-04T07:53:04;59986.63;;;-146.42;100.00
977;BME280;477;51.436;7.292;2022-10-04T07:55:59;59986.63;;;-146.42;100.00
977;BME280;477;51.436;7.292;2022-10-04T07:58:43;101287.47;;;10.46;100.00
977;BME280;477;51.436;7.292;2022-10-04T08:02:22;59986.63;;;-146.42;100.00
977;BME280;477;51.436;7.292;2022-10-04T08:06:06;59986.63;;;-146.42;100.00
977;BME280;477;51.436;7.292;2022-10-04T08:09:55;59986.63;;;-146.42;100.00
977;BME280;477;51.436;7.292;2022-10-04T08:13:37;59986.63;;;-146.42;100.00
977;BME280;477;51.436;7.292;2022-10-04T08:17:16;59986.63;;;-146.42;100.00
977;BME280;477;51.436;7.292;2022-10-04T08:19:58;59986.63;;;-146.42;100.00
977;BME280;477;51.436;7.292;2022-10-04T08:23:57;59986.63;;;-146.42;100.00
977;BME280;477;51.436;7.292;2022-10-04T08:27:40;59986.63;;;-146.42;100.00
977;BME280;477;51.436;7.292;2022-10-04T08:31:51;59986.63;;;-146.42;100.00
977;BME280;477;51.436;7.292;2022-10-04T08:35:34;59986.63;;;-146.42;100.00
977;BME280;477;51.436;7.292;2022-10-04T08:39:37;59986.63;;;-146.42;100.00
977;BME280;477;51.436;7.292;2022-10-04T08:43:37;59986.63;;;-146.42;100.00
977;BME280;477;51.436;7.292;2022-10-04T08:52:11;59986.63;;;-146.42;100.00
977;BME280;477;51.436;7.292;2022-10-04T08:56:35;59986.63;;;-146.42;100.00
977;BME280;477;51.436;7.292;2022-10-04T09:00:21;59986.63;;;-146.42;100.00
977;BME280;477;51.436;7.292;2022-10-04T09:04:01;59986.63;;;-146.42;100.00
977;BME280;477;51.436;7.292;2022-10-04T09:06:50;59986.63;;;-146.42;100.00
977;BME280;477;51.436;7.292;2022-10-04T09:09:55;59986.63;;;-146.42;100.00
977;BME280;477;51.436;7.292;2022-10-04T09:12:55;59986.63;;;-146.42;100.00
977;BME280;477;51.436;7.292;2022-10-04T09:15:50;59986.63;;;-146.42;100.00
977;BME280;477;51.436;7.292;2022-10-04T09:18:47;59986.63;;;-146.42;100.00
977;BME280;477;51.436;7.292;2022-10-04T09:21:48;59986.63;;;-146.42;100.00
977;BME280;477;51.436;7.292;2022-10-04T09:26:08;59986.63;;;-146.42;100.00
977;BME280;477;51.436;7.292;2022-10-04T09:30:13;59986.63;;;-146.42;100.00
977;BME280;477;51.436;7.292;2022-10-04T09:34:09;59986.63;;;-146.42;100.00
977;BME280;477;51.436;7.292;2022-10-04T09:38:03;59986.63;;;-146.42;100.00
977;BME280;477;51.436;7.292;2022-10-04T09:50:13;59986.63;;;-146.42;100.00
977;BME280;477;51.436;7.292;2022-10-04T09:58:08;59986.63;;;-146.42;100.00
977;BME280;477;51.436;7.292;2022-10-04T10:01:34;59986.63;;;-146.42;100.00
977;BME280;477;51.436;7.292;2022-10-04T10:05:34;59986.63;;;-146.42;100.00
977;BME280;477;51.436;7.292;2022-10-04T10:09:14;59986.63;;;-146.42;100.00
977;BME280;477;51.436;7.292;2022-10-04T10:12:55;59986.63;;;-146.42;100.00
977;BME280;477;51.436;7.292;2022-10-04T10:17:00;59986.63;;;-146.42;100.00
977;BME280;477;51.436;7.292;2022-10-04T10:20:17;101208.28;;;14.34;100.00
977;BME280;477;51.436;7.292;2022-10-04T10:23:41;59986.63;;;-146.42;100.00
977;BME280;477;51.436;7.292;2022-10-04T10:26:35;59986.63;;;-146.42;100.00
977;BME280;477;51.436;7.292;2022-10-04T10:29:52;59986.63;;;-146.42;100.00
977;BME280;477;51.436;7.292;2022-10-04T10:33:04;59986.63;;;-146.42;100.00
977;BME280;477;51.436;7.292;2022-10-04T10:35:58;59986.63;;;-146.42;100.00
977;BME280;477;51.436;7.292;2022-10-04T10:39:55;59986.63;;;-146.42;100.00
977;BME280;477;51.436;7.292;2022-10-04T10:43:51;59986.63;;;-146.42;100.00
977;BME280;477;51.436;7.292;2022-10-04T10:46:48;59986.63;;;-146.42;100.00
977;BME280;477;51.436;7.292;2022-10-04T10:49:35;59986.63;;;-146.42;100.00
977;BME280;477;51.436;7.292;2022-10-04T10:53:09;59986.63;;;-146.42;100.00
977;BME280;477;51.436;7.292;2022-10-04T10:56:35;59986.63;;;-146.42;100.00
977;BME280;477;51.436;7.292;2022-10-04T11:03:05;101189.53;;;15.60;100.00
977;BME280;477;51.436;7.292;2022-10-04T11:12:49;59986.63;;;-146.42;100.00
977;BME280;477;51.436;7.292;2022-10-04T11:19:36;59986.63;;;-146.42;100.00
977;BME280;477;51.436;7.292;2022-10-04T11:27:52;59986.63;;;-146.42;100.00
977;BME280;477;51.436;7.292;2022-10-04T11:30:38;59986.63;;;-146.42;100.00
977;BME280;477;51.436;7.292;2022-10-04T11:38:05;59986.63;;;-146.42;100.00
977;BME280;477;51.436;7.292;2022-10-04T11:41:53;59986.63;;;-146.42;100.00
977;BME280;477;51.436;7.292;2022-10-04T11:45:52;59986.63;;;-146.42;100.00
977;BME280;477;51.436;7.292;2022-10-04T11:49:37;59986.63;;;-146.42;100.00
977;BME280;477;51.436;7.292;2022-10-04T11:53:44;59986.63;;;-146.42;100.00
977;BME280;477;51.436;7.292;2022-10-04T11:57:28;59986.63;;;-146.42;100.00
977;BME280;477;51.436;7.292;2022-10-04T12:01:07;59986.63;;;-146.42;100.00
977;BME280;477;51.436;7.292;2022-10-04T12:09:03;59986.63;;;-146.42;100.00
977;BME280;477;51.436;7.292;2022-10-04T12:12:08;101189.53;;;15.60;100.00
977;BME280;477;51.436;7.292;2022-10-04T12:15:31;101189.53;;;15.60;100.00
977;BME280;477;51.436;7.292;2022-10-04T12:21:50;101112.28;;;17.95;98.30
977;BME280;477;51.436;7.292;2022-10-04T12:25:00;101114.72;;;17.98;100.00
977;BME280;477;51.436;7.292;2022-10-04T12:28:07;101114.72;;;17.98;100.00
977;BME280;477;51.436;7.292;2022-10-04T12:31:12;101097.59;;;18.31;95.24
977;BME280;477;51.436;7.292;2022-10-04T12:33:50;101092.97;;;18.47;93.08
977;BME280;477;51.436;7.292;2022-10-04T12:36:46;101097.28;;;18.23;97.44
977;BME280;477;51.436;7.292;2022-10-04T12:39:32;101081.69;;;18.33;97.97
977;BME280;477;51.436;7.292;2022-10-04T12:42:21;101081.69;;;18.33;97.97
977;BME280;477;51.436;7.292;2022-10-04T12:45:22;59986.63;;;-146.42;100.00
977;BME280;477;51.436;7.292;2022-10-04T12:48:13;59986.63;;;-146.42;100.00
977;BME280;477;51.436;7.292;2022-10-04T12:50:52;59986.63;;;-146.42;70.27
977;BME280;477;51.436;7.292;2022-10-04T12:53:38;101072.06;;;18.57;87.94
977;BME280;477;51.436;7.292;2022-10-04T12:56:20;101061.75;;;18.54;91.30
977;BME280;477;51.436;7.292;2022-10-04T12:59:46;101060.25;;;18.88;91.63
977;BME280;477;51.436;7.292;2022-10-04T13:02:52;101047.06;;;18.63;84.10
977;BME280;477;51.436;7.292;2022-10-04T13:05:33;101055.63;;;18.79;89.84
977;BME280;477;51.436;7.292;2022-10-04T13:08:18;101048.00;;;18.87;85.66
977;BME280;477;51.436;7.292;2022-10-04T13:11:05;101043.56;;;18.88;87.29
977;BME280;477;51.436;7.292;2022-10-04T13:14:28;101045.69;;;18.95;90.26
977;BME280;477;51.436;7.292;2022-10-04T13:17:12;101046.03;;;19.15;89.66
977;BME280;477;51.436;7.292;2022-10-04T13:20:30;101045.38;;;19.24;87.15
977;BME280;477;51.436;7.292;2022-10-04T13:23:12;101043.97;;;19.31;84.68
977;BME280;477;51.436;7.292;2022-10-04T13:26:33;101040.22;;;19.22;84.75
977;BME280;477;51.436;7.292;2022-10-04T13:29:16;101045.75;;;19.30;80.17
977;BME280;477;51.436;7.292;2022-10-04T13:31:53;101036.28;;;19.28;82.69
977;BME280;477;51.436;7.292;2022-10-04T13:34:32;101034.59;;;19.27;82.46
977;BME280;477;51.436;7.292;2022-10-04T13:37:23;101035.84;;;19.34;85.75
977;BME280;477;51.436;7.292;2022-10-04T13:40:43;101029.63;;;19.46;80.70
977;BME280;477;51.436;7.292;2022-10-04T13:43:52;101026.78;;;19.49;88.67
977;BME280;477;51.436;7.292;2022-10-04T13:46:38;101020.91;;;19.57;85.96
977;BME280;477;51.436;7.292;2022-10-04T13:49:29;101016.94;;;19.51;81.57
977;BME280;477;51.436;7.292;2022-10-04T13:52:14;101026.13;;;19.59;78.15
977;BME280;477;51.436;7.292;2022-10-04T13:55:22;101021.56;;;19.61;83.06
977;BME280;477;51.436;7.292;2022-10-04T13:58:33;101016.72;;;19.54;74.91
977;BME280;477;51.436;7.292;2022-10-04T14:08:03;101006.38;;;19.51;85.81
977;BME280;477;51.436;7.292;2022-10-04T14:11:05;101002.47;;;19.33;69.17
977;BME280;477;51.436;7.292;2022-10-04T14:14:05;101006.50;;;19.50;71.83
977;BME280;477;51.436;7.292;2022-10-04T14:20:14;101005.50;;;19.64;70.26
977;BME280;477;51.436;7.292;2022-10-04T14:23:17;59986.63;;;-146.42;nan
977;BME280;477;51.436;7.292;2022-10-04T14:26:42;101000.66;;;19.58;77.17
977;BME280;477;51.436;7.292;2022-10-04T14:29:59;100999.66;;;19.47;74.08
977;BME280;477;51.436;7.292;2022-10-04T14:33:35;100998.09;;;19.56;71.45
977;BME280;477;51.436;7.292;2022-10-04T14:36:30;101004.75;;;19.62;76.82
977;BME280;477;51.436;7.292;2022-10-04T14:39:40;101009.72;;;19.66;71.00
977;BME280;477;51.436;7.292;2022-10-04T14:42:46;101004.78;;;19.73;78.25
977;BME280;477;51.436;7.292;2022-10-04T14:45:27;101003.72;;;19.64;76.34
977;BME280;477;51.436;7.292;2022-10-04T14:51:23;100981.00;;;19.73;71.59
977;BME280;477;51.436;7.292;2022-10-04T14:54:02;100980.03;;;19.63;75.50
977;BME280;477;51.436;7.292;2022-10-04T14:57:00;100979.09;;;19.64;78.78
977;BME280;477;51.436;7.292;2022-10-04T14:59:57;100971.75;;;19.67;78.25
977;BME280;477;51.436;7.292;2022-10-04T15:06:09;100969.34;;;19.64;78.13
977;BME280;477;51.436;7.292;2022-10-04T15:09:10;100980.78;;;19.65;79.84
977;BME280;477;51.436;7.292;2022-10-04T15:11:46;100974.25;;;19.58;80.55
977;BME280;477;51.436;7.292;2022-10-04T15:14:41;100981.41;;;19.55;85.59
977;BME280;477;51.436;7.292;2022-10-04T15:17:34;100987.34;;;19.59;80.80
977;BME280;477;51.436;7.292;2022-10-04T15:20:15;100979.94;;;19.51;78.51
977;BME280;477;51.436;7.292;2022-10-04T15:22:53;100979.88;;;19.53;82.53
977;BME280;477;51.436;7.292;2022-10-04T15:25:39;100977.00;;;19.32;81.02
977;BME280;477;51.436;7.292;2022-10-04T15:28:40;100967.47;;;19.42;85.98
977;BME280;477;51.436;7.292;2022-10-04T15:31:21;100969.81;;;19.34;85.64
977;BME280;477;51.436;7.292;2022-10-04T15:34:02;100965.31;;;19.23;86.15
977;BME280;477;51.436;7.292;2022-10-04T15:37:00;100971.03;;;19.41;92.19
977;BME280;477;51.436;7.292;2022-10-04T15:40:08;100967.97;;;19.23;93.60
977;BME280;477;51.436;7.292;2022-10-04T15:43:16;100972.63;;;19.20;93.97
977;BME280;477;51.436;7.292;2022-10-04T15:46:24;100968.75;;;19.13;94.12
977;BME280;477;51.436;7.292;2022-10-04T15:49:31;100972.72;;;18.94;93.99
977;BME280;477;51.436;7.292;2022-10-04T15:55:53;100977.38;;;18.91;97.18
977;BME280;477;51.436;7.292;2022-10-04T15:59:13;100972.19;;;18.89;95.23
977;BME280;477;51.436;7.292;2022-10-04T16:02:08;100978.28;;;19.02;100.00
977;BME280;477;51.436;7.292;2022-10-04T16:04:56;100982.63;;;19.03;100.00
977;BME280;477;51.436;7.292;2022-10-04T16:07:40;100984.03;;;18.84;100.00
977;BME280;477;51.436;7.292;2022-10-04T16:10:24;100986.34;;;18.88;100.00
977;BME280;477;51.436;7.292;2022-10-04T16:13:24;100988.94;;;18.77;100.00
977;BME280;477;51.436;7.292;2022-10-04T16:16:40;100991.88;;;18.60;100.00
977;BME280;477;51.436;7.292;2022-10-04T16:19:28;100993.97;;;18.67;100.00
977;BME280;477;51.436;7.292;2022-10-04T16:22:12;100999.72;;;18.48;100.00
977;BME280;477;51.436;7.292;2022-10-04T16:24:49;100993.78;;;18.58;100.00
977;BME280;477;51.436;7.292;2022-10-04T16:27:48;100995.50;;;18.59;100.00
977;BME280;477;51.436;7.292;2022-10-04T16:30:25;100991.97;;;18.58;100.00
977;BME280;477;51.436;7.292;2022-10-04T16:33:23;100984.94;;;18.59;100.00
977;BME280;477;51.436;7.292;2022-10-04T16:36:08;100983.22;;;18.58;100.00
977;BME280;477;51.436;7.292;2022-10-04T16:38:44;100986.81;;;18.57;100.00
977;BME280;477;51.436;7.292;2022-10-04T16:41:35;100978.63;;;18.48;100.00
977;BME280;477;51.436;7.292;2022-10-04T16:44:31;100975.69;;;18.28;100.00
977;BME280;477;51.436;7.292;2022-10-04T16:47:16;100981.19;;;18.12;100.00
977;BME280;477;51.436;7.292;2022-10-04T16:49:52;100976.31;;;18.06;100.00
977;BME280;477;51.436;7.292;2022-10-04T16:52:44;100971.25;;;18.03;100.00
977;BME280;477;51.436;7.292;2022-10-04T16:55:47;100968.91;;;17.85;100.00
977;BME280;477;51.436;7.292;2022-10-04T16:58:55;100971.63;;;17.71;100.00
977;BME280;477;51.436;7.292;2022-10-04T17:02:02;100975.56;;;17.38;
977;BME280;477;51.436;7.292;2022-10-04T17:08:20;100977.41;;;17.36;100.00
977;BME280;477;51.436;7.292;2022-10-04T17:11:41;100979.56;;;17.44;100.00
977;BME280;477;51.436;7.292;2022-10-04T17:17:28;100975.22;;;17.70;100.00
977;BME280;477;51.436;7.292;2022-10-04T17:20:11;100970.50;;;17.75;100.00
977;BME280;477;51.436;7.292;2022-10-04T17:22:51;100969.56;;;17.76;100.00
977;BME280;477;51.436;7.292;2022-10-04T17:25:30;100970.59;;;17.73;100.00
977;BME280;477;51.436;7.292;2022-10-04T17:28:17;100976.38;;;17.39;100.00
977;BME280;477;51.436;7.292;2022-10-04T17:30:55;100978.63;;;17.18;100.00
977;BME280;477;51.436;7.292;2022-10-04T17:33:49;100971.44;;;17.07;100.00
977;BME280;477;51.436;7.292;2022-10-04T17:36:37;100978.34;;;16.67;100.00
977;BME280;477;51.436;7.292;2022-10-04T17:39:33;100978.72;;;16.61;100.00
977;BME280;477;51.436;7.292;2022-10-04T17:42:17;100987.66;;;16.73;100.00
977;BME280;477;51.436;7.292;2022-10-04T17:45:03;100990.81;;;16.92;100.00
977;BME280;477;51.436;7.292;2022-10-04T17:47:38;100995.00;;;17.09;100.00
977;BME280;477;51.436;7.292;2022-10-04T17:50:32;100990.44;;;17.25;100.00
977;BME280;477;51.436;7.292;2022-10-04T17:53:27;100993.81;;;17.27;100.00
977;BME280;477;51.436;7.292;2022-10-04T17:56:26;100981.59;;;17.26;100.00
977;BME280;477;51.436;7.292;2022-10-04T17:58:57;100983.44;;;17.11;100.00
977;BME280;477;51.436;7.292;2022-10-04T18:01:30;100977.03;;;16.74;100.00
977;BME280;477;51.436;7.292;2022-10-04T18:04:10;100976.94;;;16.61;100.00
977;BME280;477;51.436;7.292;2022-10-04T18:06:50;100978.25;;;16.54;100.00
977;BME280;477;51.436;7.292;2022-10-04T18:09:29;100977.03;;;16.31;100.00
977;BME280;477;51.436;7.292;2022-10-04T18:12:13;100984.91;;;16.17;100.00
977;BME280;477;51.436;7.292;2022-10-04T18:14:58;100985.19;;;15.98;100.00
977;BME280;477;51.436;7.292;2022-10-04T18:17:34;100987.88;;;15.97;100.00
977;BME280;477;51.436;7.292;2022-10-04T18:20:25;100997.25;;;15.86;100.00
977;BME280;477;51.436;7.292;2022-10-04T18:23:00;100999.72;;;16.04;100.00
977;BME280;477;51.436;7.292;2022-10-04T18:25:40;100998.75;;;15.90;100.00
977;BME280;477;51.436;7.292;2022-10-04T18:28:13;101012.38;;;15.97;100.00
977;BME280;477;51.436;7.292;2022-10-04T18:30:53;101006.13;;;16.14;100.00
977;BME280;477;51.436;7.292;2022-10-04T18:33:43;101009.25;;;16.35;100.00
977;BME280;477;51.436;7.292;2022-10-04T18:36:16;101003.34;;;16.46;100.00
977;BME280;477;51.436;7.292;2022-10-04T18:38:57;101014.13;;;16.41;100.00
977;BME280;477;51.436;7.292;2022-10-04T18:41:30;101007.25;;;16.38;100.00
977;BME280;477;51.436;7.292;2022-10-04T18:44:19;101007.91;;;16.13;100.00
977;BME280;477;51.436;7.292;2022-10-04T18:46:55;101006.59;;;16.21;100.00
977;BME280;477;51.436;7.292;2022-10-04T18:49:27;101002.91;;;15.95;100.00
977;BME280;477;51.436;7.292;2022-10-04T18:52:10;101004.06;;;15.75;100.00
977;BME280;477;51.436;7.292;2022-10-04T18:54:48;101000.56;;;15.28;100.00
977;BME280;477;51.436;7.292;2022-10-04T18:57:30;101005.72;;;15.46;100.00
977;BME280;477;51.436;7.292;2022-10-04T19:00:08;101013.88;;;15.55;100.00
977;BME280;477;51.436;7.292;2022-10-04T19:03:03;101022.56;;;15.42;100.00
977;BME280;477;51.436;7.292;2022-10-04T19:05:41;101019.38;;;15.36;100.00
977;BME280;477;51.436;7.292;2022-10-04T19:08:35;101034.25;;;15.52;100.00
977;BME280;477;51.436;7.292;2022-10-04T19:11:11;101034.25;;;15.52;100.00
977;BME280;477;51.436;7.292;2022-10-04T19:13:46;59986.63;;;-146.42;100.00
977;BME280;477;51.436;7.292;2022-10-04T19:16:39;59986.63;;;-146.42;100.00
977;BME280;477;51.436;7.292;2022-10-04T19:19:33;59986.63;;;-146.42;100.00
977;BME280;477;51.436;7.292;2022-10-04T19:22:15;59986.63;;;-146.42;100.00
977;BME280;477;51.436;7.292;2022-10-04T19:25:11;101034.25;;;15.52;100.00
977;BME280;477;51.436;7.292;2022-10-04T19:27:49;101034.25;;;15.52;100.00
977;BME280;477;51.436;7.292;2022-10-04T19:30:21;101034.25;;;15.52;100.00
977;BME280;477;51.436;7.292;2022-10-04T19:33:00;101034.25;;;15.52;100.00
977;BME280;477;51.436;7.292;2022-10-04T19:38:47;101010.13;;;14.82;100.00
977;BME280;477;51.436;7.292;2022-10-04T19:41:37;101001.88;;;14.90;100.00
977;BME280;477;51.436;7.292;2022-10-04T19:44:23;101008.09;;;14.71;100.00
977;BME280;477;51.436;7.292;2022-10-04T19:47:00;101010.72;;;14.71;100.00
977;BME280;477;51.436;7.292;2022-10-04T19:49:41;101005.41;;;14.73;100.00
977;BME280;477;51.436;7.292;2022-10-04T19:52:21;101009.53;;;14.93;100.00
977;BME280;477;51.436;7.292;2022-10-04T19:54:56;101009.13;;;15.00;100.00
977;BME280;477;51.436;7.292;2022-10-04T19:57:35;101004.16;;;14.96;100.00
977;BME280;477;51.436;7.292;2022-10-04T20:36:03;101024.97;;;14.32;100.00
977;BME280;477;51.436;7.292;2022-10-04T20:39:02;101028.31;;;14.01;100.00
977;BME280;477;51.436;7.292;2022-10-04T20:42:09;101020.75;;;14.13;100.00
977;BME280;477;51.436;7.292;2022-10-04T20:44:59;101021.44;;;13.99;100.00
977;BME280;477;51.436;7.292;2022-10-04T20:47:38;101014.47;;;13.99;100.00
977;BME280;477;51.436;7.292;2022-10-04T20:50:32;101014.22;;;14.21;100.00
977;BME280;477;51.436;7.292;2022-10-04T20:53:11;101014.81;;;14.26;100.00
977;BME280;477;51.436;7.292;2022-10-04T20:55:40;101012.38;;;14.06;100.00
977;BME280;477;51.436;7.292;2022-10-04T20:58:28;100997.66;;;14.03;100.00
977;BME280;477;51.436;7.292;2022-10-04T21:01:00;100995.81;;;14.05;100.00
977;BME280;477;51.436;7.292;2022-10-04T21:03:39;101003.88;;;14.18;100.00
977;BME280;477;51.436;7.292;2022-10-04T21:06:11;100993.25;;;14.21;100.00
977;BME280;477;51.436;7.292;2022-10-04T21:08:40;100999.44;;;14.20;100.00
977;BME280;477;51.436;7.292;2022-10-04T21:11:18;100997.66;;;14.03;100.00
977;BME280;477;51.436;7.292;2022-10-04T21:13:58;100994.34;;;13.82;100.00
977;BME280;477;51.436;7.292;2022-10-04T21:16:41;100995.50;;;13.77;100.00
977;BME280;477;51.436;7.292;2022-10-04T21:19:44;100990.34;;;13.75;100.00
977;BME280;477;51.436;7.292;2022-10-04T21:22:40;101002.25;;;13.46;100.00
977;BME280;477;51.436;7.292;2022-10-04T21:25:40;100997.50;;;13.37;100.00
977;BME280;477;51.436;7.292;2022-10-04T21:28:32;101004.13;;;13.25;100.00
977;BME280;477;51.436;7.292;2022-10-04T21:31:02;101004.25;;;13.41;100.00
977;BME280;477;51.436;7.292;2022-10-04T21:33:34;100998.34;;;13.55;100.00
977;BME280;477;51.436;7.292;2022-10-04T21:36:04;100995.72;;;13.55;100.00
977;BME280;477;51.436;7.292;2022-10-04T21:38:33;100999.69;;;13.64;100.00
977;BME280;477;51.436;7.292;2022-10-04T21:41:03;101002.44;;;13.61;100.00
977;BME280;477;51.436;7.292;2022-10-04T21:43:31;101008.34;;;13.47;100.00
977;BME280;477;51.436;7.292;2022-10-04T21:46:00;101006.63;;;13.46;100.00
977;BME280;477;51.436;7.292;2022-10-04T21:48:28;101007.88;;;13.39;100.00
977;BME280;477;51.436;7.292;2022-10-04T21:50:56;101000.88;;;13.39;100.00
977;BME280;477;51.436;7.292;2022-10-04T21:53:24;101002.84;;;13.34;100.00
977;BME280;477;51.436;7.292;2022-10-04T21:55:53;100999.25;;;13.37;100.00
977;BME280;477;51.436;7.292;2022-10-04T21:58:23;100997.75;;;13.31;100.00
977;BME280;477;51.436;7.292;2022-10-04T22:00:51;100995.19;;;13.48;100.00
977;BME280;477;51.436;7.292;2022-10-04T22:03:19;101004.81;;;13.48;100.00
977;BME280;477;51.436;7.292;2022-10-04T22:05:47;101010.63;;;13.36;100.00
977;BME280;477;51.436;7.292;2022-10-04T22:08:16;101000.31;;;13.32;100.00
977;BME280;477;51.436;7.292;2022-10-04T22:10:44;100997.63;;;13.15;100.00
977;BME280;477;51.436;7.292;2022-10-04T22:13:14;100998.31;;;13.19;100.00
977;BME280;477;51.436;7.292;2022-10-04T22:15:43;101015.38;;;13.09;100.00
977;BME280;477;51.436;7.292;2022-10-04T22:18:11;101007.81;;;12.84;100.00
977;BME280;477;51.436;7.292;2022-10-04T22:20:40;101013.88;;;13.03;100.00
977;BME280;477;51.436;7.292;2022-10-04T22:23:13;101012.13;;;13.03;100.00
977;BME280;477;51.436;7.292;2022-10-04T22:25:43;101010.34;;;13.04;100.00
977;BME280;477;51.436;7.292;2022-10-04T22:28:17;101003.00;;;13.12;100.00
977;BME280;477;51.436;7.292;2022-10-04T22:30:50;100997.28;;;13.23;100.00
977;BME280;477;51.436;7.292;2022-10-04T22:33:27;100997.88;;;12.92;100.00
977;BME280;477;51.436;7.292;2022-10-04T22:35:59;100984.19;;;13.04;100.00
977;BME280;477;51.436;7.292;2022-10-04T22:38:32;100981.28;;;13.10;100.00
977;BME280;477;51.436;7.292;2022-10-04T22:41:09;100985.34;;;12.98;100.00